Etusivu
METAR-TAF:

METAR-TAF

Lentoasemat :

Bournemouthin lentoasema

Bournemouth, Englanti

Leveyspiiri: 50-47N, Pituuspiiri: 001-50W, korkeus merenpinnasta: 11 m

Tämänhetkinen sää

Tämä raportti tehtiin 8 tuntia ja 36 minuuttia sitten, kello 19.50 UTC
Tuuli 10 kn lännestä
Lämpötila 3°C
Kosteus 81%
Ilmanpaine 1003 hPa
Näkyvyys 10 km tai enemmän
ei pilviä alle 1500 m:ssä eikä cumulonimbus-pilviä

METAR: EGHH 281950Z 28010KT CAVOK 03/M00 Q1003

Aika: 04:26 (04:26 UTC)

Sääennuste

Tämä raportti tehtiin 8 tuntia ja 30 minuuttia sitten, kello 19.56 UTC
Ennuste voimassa 28. päivästä klo 21 UTC - 29. päivään klo 06 UTC
Tuuli 12 kn lännestä
Näkyvyys 10 km tai enemmän
Muutamia pilviä 2500 ft:n korkeudessa

TAF: EGHH 281956Z 2821/2906 27012KT 9999 FEW025

Säähavainnot ja -ennusteet yli 4000 lentoasemalta (METAR- ja TAF-raportit).

Käytössä olevat sääasemat on merkitty karttaan keltaisilla ja punaisilla pisteillä.

Aseta hiiri pisteen päälle nähdäksesi sääaseman nimen.

Klikkaa sitten nähdäksesi säähavainnot ja -ennusteet.

Kartan vaihtaminen: klikkaa mustalla rastilla varustettuja vihreitä pisteitä, niin voit zoomata sisään; viivalla varustettua vihreää pistettä, niin voit zoomata ulos tai vihreitä nuolia, niin pääset viereisille kartoille.


METAR-TAF: